sensor_id;sensor_type;location;lat;lon;timestamp;pressure;altitude;pressure_sealevel;temperature;humidity
35489;BME280;21602;55.670;37.578;2023-04-01T00:00:53;97753.91;;;3.07;93.02
35489;BME280;21602;55.670;37.578;2023-04-01T00:03:20;97761.25;;;3.05;93.07
35489;BME280;21602;55.670;37.578;2023-04-01T00:05:46;97754.38;;;3.04;93.40
35489;BME280;21602;55.670;37.578;2023-04-01T00:08:12;97756.78;;;3.05;93.12
35489;BME280;21602;55.670;37.578;2023-04-01T00:10:39;97751.28;;;3.07;93.37
35489;BME280;21602;55.670;37.578;2023-04-01T00:13:05;97754.94;;;3.06;93.09
35489;BME280;21602;55.670;37.578;2023-04-01T00:15:32;97751.28;;;3.07;93.13
35489;BME280;21602;55.670;37.578;2023-04-01T00:17:59;97751.50;;;3.05;92.93
35489;BME280;21602;55.670;37.578;2023-04-01T00:20:26;97747.84;;;3.06;93.05
35489;BME280;21602;55.670;37.578;2023-04-01T00:22:52;97744.97;;;3.08;93.13
35489;BME280;21602;55.670;37.578;2023-04-01T00:25:18;97740.28;;;3.10;93.04
35489;BME280;21602;55.670;37.578;2023-04-01T00:27:44;97744.09;;;3.14;93.06
35489;BME280;21602;55.670;37.578;2023-04-01T00:30:10;97747.88;;;3.18;93.09
35489;BME280;21602;55.670;37.578;2023-04-01T00:32:37;97745.13;;;3.25;92.94
35489;BME280;21602;55.670;37.578;2023-04-01T00:35:03;97748.34;;;3.27;92.84
35489;BME280;21602;55.670;37.578;2023-04-01T00:37:30;97740.44;;;3.27;92.59
35489;BME280;21602;55.670;37.578;2023-04-01T00:39:56;97737.78;;;3.27;92.69
35489;BME280;21602;55.670;37.578;2023-04-01T00:42:22;97735.38;;;3.25;92.55
35489;BME280;21602;55.670;37.578;2023-04-01T00:44:53;97737.78;;;3.27;92.78
35489;BME280;21602;55.670;37.578;2023-04-01T00:47:21;97738.38;;;3.29;92.69
35489;BME280;21602;55.670;37.578;2023-04-01T00:49:50;97734.47;;;3.31;92.70
35489;BME280;21602;55.670;37.578;2023-04-01T00:52:24;97735.50;;;3.30;92.33
35489;BME280;21602;55.670;37.578;2023-04-01T00:54:56;97734.16;;;3.28;92.29
35489;BME280;21602;55.670;37.578;2023-04-01T00:57:37;97725.88;;;3.24;92.35
35489;BME280;21602;55.670;37.578;2023-04-01T01:00:06;97729.19;;;3.20;92.24
35489;BME280;21602;55.670;37.578;2023-04-01T01:02:35;97727.78;;;3.17;92.55
35489;BME280;21602;55.670;37.578;2023-04-01T01:05:01;97732.88;;;3.19;92.48
35489;BME280;21602;55.670;37.578;2023-04-01T01:07:49;97741.44;;;3.14;92.21
35489;BME280;21602;55.670;37.578;2023-04-01T01:10:24;97728.34;;;3.07;92.68
35489;BME280;21602;55.670;37.578;2023-04-01T01:13:10;97738.88;;;3.07;92.94
35489;BME280;21602;55.670;37.578;2023-04-01T01:15:49;97736.38;;;3.13;93.30
35489;BME280;21602;55.670;37.578;2023-04-01T01:18:36;97738.44;;;3.11;92.81
35489;BME280;21602;55.670;37.578;2023-04-01T01:37:06;97737.41;;;3.12;93.04
35489;BME280;21602;55.670;37.578;2023-04-01T01:39:36;97740.50;;;3.08;93.00
35489;BME280;21602;55.670;37.578;2023-04-01T01:42:06;97741.31;;;3.09;93.03
35489;BME280;21602;55.670;37.578;2023-04-01T01:44:35;97743.13;;;3.08;93.19
35489;BME280;21602;55.670;37.578;2023-04-01T01:47:02;97736.25;;;3.07;93.13
35489;BME280;21602;55.670;37.578;2023-04-01T01:49:29;97737.28;;;3.06;93.18
35489;BME280;21602;55.670;37.578;2023-04-01T01:51:57;97741.53;;;3.07;93.15
35489;BME280;21602;55.670;37.578;2023-04-01T01:54:23;97742.13;;;3.10;93.48
35489;BME280;21602;55.670;37.578;2023-04-01T01:57:03;97744.28;;;3.13;93.11
35489;BME280;21602;55.670;37.578;2023-04-01T01:59:35;97738.44;;;3.11;93.09
35489;BME280;21602;55.670;37.578;2023-04-01T02:02:05;97743.13;;;3.08;92.96
35489;BME280;21602;55.670;37.578;2023-04-01T02:04:36;97739.13;;;3.06;93.11
35489;BME280;21602;55.670;37.578;2023-04-01T02:07:13;97747.41;;;3.10;93.05
35489;BME280;21602;55.670;37.578;2023-04-01T02:09:41;97744.16;;;3.07;92.98
35489;BME280;21602;55.670;37.578;2023-04-01T02:12:11;97749.66;;;3.06;92.91
35489;BME280;21602;55.670;37.578;2023-04-01T02:17:24;97754.81;;;3.01;92.97
35489;BME280;21602;55.670;37.578;2023-04-01T02:20:04;97751.38;;;3.00;93.05
35489;BME280;21602;55.670;37.578;2023-04-01T02:22:36;97750.78;;;2.98;93.09
35489;BME280;21602;55.670;37.578;2023-04-01T02:25:10;97752.59;;;2.98;93.13
35489;BME280;21602;55.670;37.578;2023-04-01T02:27:37;97750.78;;;2.98;93.26
35489;BME280;21602;55.670;37.578;2023-04-01T02:30:03;97754.00;;;3.00;93.53
35489;BME280;21602;55.670;37.578;2023-04-01T02:32:31;97753.53;;;3.03;93.11
35489;BME280;21602;55.670;37.578;2023-04-01T02:34:58;97757.34;;;3.07;93.28
35489;BME280;21602;55.670;37.578;2023-04-01T02:37:29;97753.47;;;3.10;92.92
35489;BME280;21602;55.670;37.578;2023-04-01T02:40:00;97755.06;;;3.11;92.82
35489;BME280;21602;55.670;37.578;2023-04-01T02:42:26;97760.78;;;3.08;92.86
35489;BME280;21602;55.670;37.578;2023-04-01T02:44:52;97760.22;;;3.06;93.01
35489;BME280;21602;55.670;37.578;2023-04-01T02:47:17;97756.78;;;3.05;92.96
35489;BME280;21602;55.670;37.578;2023-04-01T02:49:43;97755.63;;;3.01;93.02
35489;BME280;21602;55.670;37.578;2023-04-01T02:52:09;97768.66;;;2.96;93.13
35489;BME280;21602;55.670;37.578;2023-04-01T02:54:35;97767.94;;;2.89;93.05
35489;BME280;21602;55.670;37.578;2023-04-01T02:57:02;97766.78;;;2.85;93.33
35489;BME280;21602;55.670;37.578;2023-04-01T02:59:28;97760.69;;;2.85;93.57
35489;BME280;21602;55.670;37.578;2023-04-01T03:01:54;97761.06;;;2.88;93.82
35489;BME280;21602;55.670;37.578;2023-04-01T03:04:19;97764.63;;;2.94;93.86
35489;BME280;21602;55.670;37.578;2023-04-01T03:06:45;97760.09;;;3.01;93.97
35489;BME280;21602;55.670;37.578;2023-04-01T03:09:11;97767.31;;;3.05;93.79
35489;BME280;21602;55.670;37.578;2023-04-01T03:11:37;97773.16;;;3.07;93.27
35489;BME280;21602;55.670;37.578;2023-04-01T03:14:03;97764.44;;;3.07;93.13
35489;BME280;21602;55.670;37.578;2023-04-01T03:16:28;97777.28;;;3.03;93.01
35489;BME280;21602;55.670;37.578;2023-04-01T03:18:54;97782.78;;;3.02;93.19
35489;BME280;21602;55.670;37.578;2023-04-01T03:21:23;97780.94;;;3.02;92.98
35489;BME280;21602;55.670;37.578;2023-04-01T03:23:51;97785.19;;;3.03;93.43
35489;BME280;21602;55.670;37.578;2023-04-01T03:26:17;97781.97;;;3.01;93.24
35489;BME280;21602;55.670;37.578;2023-04-01T03:28:44;97793.56;;;3.00;93.49
35489;BME280;21602;55.670;37.578;2023-04-01T03:31:10;97789.66;;;3.03;93.49
35489;BME280;21602;55.670;37.578;2023-04-01T03:33:42;97787.81;;;3.03;93.29
35489;BME280;21602;55.670;37.578;2023-04-01T03:36:08;97788.41;;;3.05;93.20
35489;BME280;21602;55.670;37.578;2023-04-01T03:38:35;97795.72;;;3.03;93.72
35489;BME280;21602;55.670;37.578;2023-04-01T03:41:01;97786.44;;;3.01;93.28
35489;BME280;21602;55.670;37.578;2023-04-01T03:43:28;97792.63;;;2.95;93.17
35489;BME280;21602;55.670;37.578;2023-04-01T03:45:54;97800.16;;;2.91;93.52
35489;BME280;21602;55.670;37.578;2023-04-01T03:48:20;97798.56;;;2.90;93.69
35489;BME280;21602;55.670;37.578;2023-04-01T03:50:47;97803.59;;;2.92;94.01
35489;BME280;21602;55.670;37.578;2023-04-01T03:53:13;97810.84;;;2.96;94.11
35489;BME280;21602;55.670;37.578;2023-04-01T03:55:43;97816.47;;;3.00;93.90
35489;BME280;21602;55.670;37.578;2023-04-01T03:58:09;97813.03;;;2.99;93.74
35489;BME280;21602;55.670;37.578;2023-04-01T04:00:35;97820.47;;;3.02;94.02
35489;BME280;21602;55.670;37.578;2023-04-01T04:03:05;97820.63;;;3.07;93.94
35489;BME280;21602;55.670;37.578;2023-04-01T04:05:34;97822.38;;;3.14;93.98
35489;BME280;21602;55.670;37.578;2023-04-01T04:08:02;97822.97;;;3.16;93.50
35489;BME280;21602;55.670;37.578;2023-04-01T04:10:28;97832.03;;;3.20;93.63
35489;BME280;21602;55.670;37.578;2023-04-01T04:12:55;97827.69;;;3.25;93.59
35489;BME280;21602;55.670;37.578;2023-04-01T04:15:23;97834.00;;;3.24;93.17
35489;BME280;21602;55.670;37.578;2023-04-01T04:17:48;97831.38;;;3.24;93.21
35489;BME280;21602;55.670;37.578;2023-04-01T04:20:16;97838.00;;;3.27;93.05
35489;BME280;21602;55.670;37.578;2023-04-01T04:22:42;97839.19;;;3.31;93.09
35489;BME280;21602;55.670;37.578;2023-04-01T04:25:08;97842.41;;;3.33;92.99
35489;BME280;21602;55.670;37.578;2023-04-01T04:27:35;97845.63;;;3.35;92.91
35489;BME280;21602;55.670;37.578;2023-04-01T04:30:09;97840.72;;;3.39;92.81
35489;BME280;21602;55.670;37.578;2023-04-01T04:32:36;97847.16;;;3.43;92.94
35489;BME280;21602;55.670;37.578;2023-04-01T04:35:03;97847.28;;;3.48;92.88
35489;BME280;21602;55.670;37.578;2023-04-01T04:37:29;97854.06;;;3.55;92.79
35489;BME280;21602;55.670;37.578;2023-04-01T04:39:55;97842.03;;;3.59;92.49
35489;BME280;21602;55.670;37.578;2023-04-01T04:42:21;97845.03;;;3.63;92.41
35489;BME280;21602;55.670;37.578;2023-04-01T04:44:47;97845.59;;;3.65;92.54
35489;BME280;21602;55.670;37.578;2023-04-01T04:47:13;97846.19;;;3.67;92.62
35489;BME280;21602;55.670;37.578;2023-04-01T04:49:39;97856.97;;;3.66;92.18
35489;BME280;21602;55.670;37.578;2023-04-01T04:52:08;97854.47;;;3.71;93.04
35489;BME280;21602;55.670;37.578;2023-04-01T04:54:35;97860.88;;;3.75;92.29
35489;BME280;21602;55.670;37.578;2023-04-01T04:57:02;97865.34;;;3.74;92.03
35489;BME280;21602;55.670;37.578;2023-04-01T04:59:33;97862.50;;;3.76;92.23
35489;BME280;21602;55.670;37.578;2023-04-01T05:02:34;97864.81;;;3.84;92.30
35489;BME280;21602;55.670;37.578;2023-04-01T05:05:00;97872.41;;;3.92;92.14
35489;BME280;21602;55.670;37.578;2023-04-01T05:07:33;97869.69;;;3.99;91.77
35489;BME280;21602;55.670;37.578;2023-04-01T05:10:50;97869.81;;;4.04;91.37
35489;BME280;21602;55.670;37.578;2023-04-01T05:14:18;97878.66;;;4.09;91.33
35489;BME280;21602;55.670;37.578;2023-04-01T05:20:52;97881.19;;;4.28;90.88
35489;BME280;21602;55.670;37.578;2023-04-01T05:23:45;97879.56;;;4.27;90.17
35489;BME280;21602;55.670;37.578;2023-04-01T05:26:14;97882.22;;;4.27;90.73
35489;BME280;21602;55.670;37.578;2023-04-01T05:28:40;97889.69;;;4.30;90.53
35489;BME280;21602;55.670;37.578;2023-04-01T05:31:28;97890.03;;;4.33;90.40
35489;BME280;21602;55.670;37.578;2023-04-01T05:34:07;97887.06;;;4.30;90.06
35489;BME280;21602;55.670;37.578;2023-04-01T05:36:35;97886.94;;;4.25;90.07
35489;BME280;21602;55.670;37.578;2023-04-01T05:39:45;97884.16;;;4.20;89.94
35489;BME280;21602;55.670;37.578;2023-04-01T05:42:33;97887.72;;;4.25;90.11
35489;BME280;21602;55.670;37.578;2023-04-01T05:45:13;97884.16;;;4.31;89.94
35489;BME280;21602;55.670;37.578;2023-04-01T05:48:30;97891.41;;;4.36;89.97
35489;BME280;21602;55.670;37.578;2023-04-01T05:51:23;97895.66;;;4.49;90.12
35489;BME280;21602;55.670;37.578;2023-04-01T05:54:08;97897.97;;;4.45;89.35
35489;BME280;21602;55.670;37.578;2023-04-01T05:56:35;97893.38;;;4.52;89.46
35489;BME280;21602;55.670;37.578;2023-04-01T05:59:29;97891.75;;;4.63;89.34
35489;BME280;21602;55.670;37.578;2023-04-01T06:02:07;97903.25;;;4.69;88.75
35489;BME280;21602;55.670;37.578;2023-04-01T06:41:46;97922.09;;;4.84;87.11
35489;BME280;21602;55.670;37.578;2023-04-01T06:54:49;97939.66;;;5.02;86.66
35489;BME280;21602;55.670;37.578;2023-04-01T06:57:57;97939.78;;;5.19;86.86
35489;BME280;21602;55.670;37.578;2023-04-01T07:00:42;97939.72;;;5.30;86.15
35489;BME280;21602;55.670;37.578;2023-04-01T07:06:09;97945.47;;;5.39;85.82
35489;BME280;21602;55.670;37.578;2023-04-01T07:08:44;97947.06;;;5.52;85.69
35489;BME280;21602;55.670;37.578;2023-04-01T07:11:22;97946.44;;;5.61;85.28
35489;BME280;21602;55.670;37.578;2023-04-01T07:14:23;97947.19;;;5.74;85.20
35489;BME280;21602;55.670;37.578;2023-04-01T07:17:19;97949.91;;;5.90;84.96
35489;BME280;21602;55.670;37.578;2023-04-01T07:19:56;97952.13;;;6.10;84.22
35489;BME280;21602;55.670;37.578;2023-04-01T07:22:36;97945.72;;;6.23;83.17
35489;BME280;21602;55.670;37.578;2023-04-01T07:28:18;97941.88;;;6.48;82.70
35489;BME280;21602;55.670;37.578;2023-04-01T07:39:45;97960.53;;;6.53;81.53
35489;BME280;21602;55.670;37.578;2023-04-01T07:45:29;97961.00;;;6.66;79.54
35489;BME280;21602;55.670;37.578;2023-04-01T07:53:48;97965.06;;;6.91;79.37
35489;BME280;21602;55.670;37.578;2023-04-01T08:03:09;97975.69;;;7.30;76.44
35489;BME280;21602;55.670;37.578;2023-04-01T08:06:18;97972.63;;;7.38;75.56
35489;BME280;21602;55.670;37.578;2023-04-01T08:08:59;97975.81;;;7.40;74.82
35489;BME280;21602;55.670;37.578;2023-04-01T08:23:20;97988.97;;;7.74;73.79
35489;BME280;21602;55.670;37.578;2023-04-01T08:26:08;97977.31;;;7.75;73.65
35489;BME280;21602;55.670;37.578;2023-04-01T08:31:29;97982.13;;;7.78;72.76
35489;BME280;21602;55.670;37.578;2023-04-01T08:34:03;97983.84;;;7.67;71.79
35489;BME280;21602;55.670;37.578;2023-04-01T08:36:43;97989.38;;;7.60;71.83
35489;BME280;21602;55.670;37.578;2023-04-01T08:39:30;97989.00;;;7.52;71.63
35489;BME280;21602;55.670;37.578;2023-04-01T08:42:19;97994.09;;;7.58;71.90
35489;BME280;21602;55.670;37.578;2023-04-01T08:51:10;97995.06;;;7.96;71.52
35489;BME280;21602;55.670;37.578;2023-04-01T09:00:00;98002.09;;;7.80;70.36
35489;BME280;21602;55.670;37.578;2023-04-01T09:06:31;98003.84;;;7.96;69.61
35489;BME280;21602;55.670;37.578;2023-04-01T09:09:10;98012.13;;;8.00;68.93
35489;BME280;21602;55.670;37.578;2023-04-01T09:15:12;98014.94;;;8.15;68.36
35489;BME280;21602;55.670;37.578;2023-04-01T09:18:20;98016.78;;;8.37;66.94
35489;BME280;21602;55.670;37.578;2023-04-01T09:21:09;98016.09;;;8.46;66.57
35489;BME280;21602;55.670;37.578;2023-04-01T09:24:08;98011.44;;;8.64;66.55
35489;BME280;21602;55.670;37.578;2023-04-01T09:27:07;98017.72;;;8.80;65.08
35489;BME280;21602;55.670;37.578;2023-04-01T09:29:46;98020.94;;;8.87;65.48
35489;BME280;21602;55.670;37.578;2023-04-01T09:32:23;98029.75;;;8.92;65.44
35489;BME280;21602;55.670;37.578;2023-04-01T09:44:12;98045.56;;;8.72;63.37
35489;BME280;21602;55.670;37.578;2023-04-01T09:47:21;98039.94;;;8.68;64.01
35489;BME280;21602;55.670;37.578;2023-04-01T09:56:07;98059.47;;;8.79;64.77
35489;BME280;21602;55.670;37.578;2023-04-01T10:02:32;98057.78;;;9.00;64.78
35489;BME280;21602;55.670;37.578;2023-04-01T10:13:35;98070.13;;;8.79;62.57
35489;BME280;21602;55.670;37.578;2023-04-01T10:16:26;98065.84;;;8.78;62.41
35489;BME280;21602;55.670;37.578;2023-04-01T10:31:02;98073.28;;;8.76;61.86
35489;BME280;21602;55.670;37.578;2023-04-01T10:36:32;98073.13;;;8.88;61.99
35489;BME280;21602;55.670;37.578;2023-04-01T10:48:21;98075.88;;;8.98;60.42
35489;BME280;21602;55.670;37.578;2023-04-01T11:09:25;98087.41;;;9.46;59.49
35489;BME280;21602;55.670;37.578;2023-04-01T11:26:09;98090.16;;;10.19;56.71
35489;BME280;21602;55.670;37.578;2023-04-01T11:37:16;98089.53;;;10.69;56.74
35489;BME280;21602;55.670;37.578;2023-04-01T11:43:31;98101.44;;;10.36;54.89
35489;BME280;21602;55.670;37.578;2023-04-01T11:53:02;98099.59;;;10.47;55.30
35489;BME280;21602;55.670;37.578;2023-04-01T11:55:53;98095.34;;;10.56;55.30
35489;BME280;21602;55.670;37.578;2023-04-01T11:58:36;98096.44;;;10.65;55.55
35489;BME280;21602;55.670;37.578;2023-04-01T12:01:46;98100.72;;;10.87;54.74
35489;BME280;21602;55.670;37.578;2023-04-01T12:12:22;98109.81;;;10.91;54.03
35489;BME280;21602;55.670;37.578;2023-04-01T12:15:10;98116.25;;;10.95;53.59
35489;BME280;21602;55.670;37.578;2023-04-01T12:20:39;98118.91;;;10.80;53.51
35489;BME280;21602;55.670;37.578;2023-04-01T12:31:24;98115.44;;;11.10;52.74
35489;BME280;21602;55.670;37.578;2023-04-01T12:39:19;98114.91;;;11.02;51.60
35489;BME280;21602;55.670;37.578;2023-04-01T12:48:01;98120.78;;;10.89;51.32
35489;BME280;21602;55.670;37.578;2023-04-01T12:55:50;98122.88;;;10.67;50.06
35489;BME280;21602;55.670;37.578;2023-04-01T13:03:58;98134.13;;;10.94;50.61
35489;BME280;21602;55.670;37.578;2023-04-01T13:19:57;98149.78;;;10.45;53.63
35489;BME280;21602;55.670;37.578;2023-04-01T13:28:39;98147.88;;;10.40;55.41
35489;BME280;21602;55.670;37.578;2023-04-01T13:33:53;98164.38;;;10.32;57.12
35489;BME280;21602;55.670;37.578;2023-04-01T13:41:54;98176.00;;;10.16;57.28
35489;BME280;21602;55.670;37.578;2023-04-01T13:44:45;98176.69;;;9.96;58.42
35489;BME280;21602;55.670;37.578;2023-04-01T13:47:27;98181.16;;;9.85;58.58
35489;BME280;21602;55.670;37.578;2023-04-01T13:52:56;98185.03;;;9.67;59.64
35489;BME280;21602;55.670;37.578;2023-04-01T13:59:10;98186.97;;;9.77;58.49
35489;BME280;21602;55.670;37.578;2023-04-01T14:01:59;98182.22;;;9.84;61.09
35489;BME280;21602;55.670;37.578;2023-04-01T14:13:56;98198.13;;;9.69;59.52
35489;BME280;21602;55.670;37.578;2023-04-01T14:19:32;98203.72;;;9.35;60.31
35489;BME280;21602;55.670;37.578;2023-04-01T14:25:12;98204.03;;;9.44;61.44
35489;BME280;21602;55.670;37.578;2023-04-01T14:36:32;98206.03;;;9.27;63.21
35489;BME280;21602;55.670;37.578;2023-04-01T14:47:52;98220.91;;;8.95;66.32
35489;BME280;21602;55.670;37.578;2023-04-01T14:50:28;98223.56;;;8.95;66.08
35489;BME280;21602;55.670;37.578;2023-04-01T14:58:12;98230.75;;;8.95;67.52
35489;BME280;21602;55.670;37.578;2023-04-01T15:15:24;98247.28;;;8.75;70.07
35489;BME280;21602;55.670;37.578;2023-04-01T15:18:07;98243.78;;;8.69;70.37
35489;BME280;21602;55.670;37.578;2023-04-01T15:20:59;98251.13;;;8.62;70.66
35489;BME280;21602;55.670;37.578;2023-04-01T15:29:18;98258.44;;;8.50;72.14
35489;BME280;21602;55.670;37.578;2023-04-01T15:32:39;98259.97;;;8.46;72.43
35489;BME280;21602;55.670;37.578;2023-04-01T15:34:57;98262.63;;;8.46;72.70
35489;BME280;21602;55.670;37.578;2023-04-01T15:37:32;98274.00;;;8.41;72.80
35489;BME280;21602;55.670;37.578;2023-04-01T15:40:43;98269.75;;;8.40;73.21
35489;BME280;21602;55.670;37.578;2023-04-01T15:46:22;98287.78;;;8.38;73.83
35489;BME280;21602;55.670;37.578;2023-04-01T15:52:06;98290.28;;;8.28;73.76
35489;BME280;21602;55.670;37.578;2023-04-01T15:54:56;98291.25;;;8.22;74.24
35489;BME280;21602;55.670;37.578;2023-04-01T15:57:42;98296.44;;;8.12;74.92
35489;BME280;21602;55.670;37.578;2023-04-01T16:02:51;98304.00;;;8.03;75.08
35489;BME280;21602;55.670;37.578;2023-04-01T16:11:13;98308.16;;;8.16;76.19
35489;BME280;21602;55.670;37.578;2023-04-01T16:14:06;98311.53;;;8.11;76.59
35489;BME280;21602;55.670;37.578;2023-04-01T16:19:47;98316.47;;;7.86;78.40
35489;BME280;21602;55.670;37.578;2023-04-01T16:22:25;98326.03;;;7.87;78.56
35489;BME280;21602;55.670;37.578;2023-04-01T16:36:52;98326.69;;;7.77;81.67
35489;BME280;21602;55.670;37.578;2023-04-01T16:39:37;98345.81;;;7.62;82.10
35489;BME280;21602;55.670;37.578;2023-04-01T16:42:23;98356.91;;;7.59;82.19
35489;BME280;21602;55.670;37.578;2023-04-01T16:45:19;98345.81;;;7.62;82.75
35489;BME280;21602;55.670;37.578;2023-04-01T16:47:54;98343.63;;;7.59;82.42
35489;BME280;21602;55.670;37.578;2023-04-01T16:50:25;98355.56;;;7.57;82.44
35489;BME280;21602;55.670;37.578;2023-04-01T16:53:16;98350.00;;;7.58;83.36
35489;BME280;21602;55.670;37.578;2023-04-01T16:55:50;98356.34;;;7.57;83.14
35489;BME280;21602;55.670;37.578;2023-04-01T16:58:26;98351.03;;;7.57;82.78
35489;BME280;21602;55.670;37.578;2023-04-01T17:01:00;98359.81;;;7.58;83.41
35489;BME280;21602;55.670;37.578;2023-04-01T17:03:33;98353.16;;;7.55;83.10
35489;BME280;21602;55.670;37.578;2023-04-01T17:11:28;98359.97;;;7.51;84.37
35489;BME280;21602;55.670;37.578;2023-04-01T17:14:14;98366.97;;;7.57;84.48
35489;BME280;21602;55.670;37.578;2023-04-01T17:22:17;98364.31;;;7.57;84.53
35489;BME280;21602;55.670;37.578;2023-04-01T17:33:12;98357.06;;;7.53;85.27
35489;BME280;21602;55.670;37.578;2023-04-01T17:36:09;98368.03;;;7.56;85.21
35489;BME280;21602;55.670;37.578;2023-04-01T17:52:43;98390.69;;;7.47;85.20
35489;BME280;21602;55.670;37.578;2023-04-01T18:06:20;98392.88;;;7.50;85.21
35489;BME280;21602;55.670;37.578;2023-04-01T18:09:06;98390.69;;;7.47;85.36
35489;BME280;21602;55.670;37.578;2023-04-01T18:14:31;98395.09;;;7.41;85.78
35489;BME280;21602;55.670;37.578;2023-04-01T18:23:09;98402.19;;;7.36;85.85
35489;BME280;21602;55.670;37.578;2023-04-01T18:25:54;98401.34;;;7.35;86.76
35489;BME280;21602;55.670;37.578;2023-04-01T18:28:53;98412.06;;;7.40;86.71
35489;BME280;21602;55.670;37.578;2023-04-01T18:31:24;98414.72;;;7.40;86.70
35489;BME280;21602;55.670;37.578;2023-04-01T18:33:56;98418.19;;;7.41;86.45
35489;BME280;21602;55.670;37.578;2023-04-01T18:36:39;98421.06;;;7.39;86.30
35489;BME280;21602;55.670;37.578;2023-04-01T18:39:22;98420.28;;;7.39;86.80
35489;BME280;21602;55.670;37.578;2023-04-01T18:45:22;98428.81;;;7.41;86.60
35489;BME280;21602;55.670;37.578;2023-04-01T18:48:33;98430.53;;;7.35;86.55
35489;BME280;21602;55.670;37.578;2023-04-01T18:51:12;98432.28;;;7.30;86.64
35489;BME280;21602;55.670;37.578;2023-04-01T18:56:31;98431.94;;;7.26;86.94
35489;BME280;21602;55.670;37.578;2023-04-01T18:59:18;98442.81;;;7.25;87.33
35489;BME280;21602;55.670;37.578;2023-04-01T19:04:43;98437.38;;;7.31;87.01
35489;BME280;21602;55.670;37.578;2023-04-01T19:07:52;98437.94;;;7.33;87.74
35489;BME280;21602;55.670;37.578;2023-04-01T19:10:46;98435.53;;;7.32;87.33
35489;BME280;21602;55.670;37.578;2023-04-01T19:13:35;98435.28;;;7.33;87.41
35489;BME280;21602;55.670;37.578;2023-04-01T19:19:29;98440.47;;;7.40;87.32
35489;BME280;21602;55.670;37.578;2023-04-01T19:27:48;98451.47;;;7.32;87.61
35489;BME280;21602;55.670;37.578;2023-04-01T19:30:36;98461.28;;;7.31;87.72
35489;BME280;21602;55.670;37.578;2023-04-01T19:56:19;98466.00;;;7.41;88.45
35489;BME280;21602;55.670;37.578;2023-04-01T20:01:52;98469.22;;;7.43;88.71
35489;BME280;21602;55.670;37.578;2023-04-01T20:04:39;98468.50;;;7.48;88.60
35489;BME280;21602;55.670;37.578;2023-04-01T20:12:21;98475.56;;;7.42;88.48
35489;BME280;21602;55.670;37.578;2023-04-01T20:14:57;98483.06;;;7.45;89.03
35489;BME280;21602;55.670;37.578;2023-04-01T20:19:59;98475.78;;;7.52;88.72
35489;BME280;21602;55.670;37.578;2023-04-01T20:25:23;98478.88;;;7.49;88.96
35489;BME280;21602;55.670;37.578;2023-04-01T20:50:56;98474.78;;;7.41;89.72
35489;BME280;21602;55.670;37.578;2023-04-01T20:55:52;98487.34;;;7.46;89.73
35489;BME280;21602;55.670;37.578;2023-04-01T20:58:40;98479.94;;;7.48;89.42
35489;BME280;21602;55.670;37.578;2023-04-01T21:32:14;98506.94;;;7.57;89.65
35489;BME280;21602;55.670;37.578;2023-04-01T21:52:00;98504.59;;;7.72;89.74
35489;BME280;21602;55.670;37.578;2023-04-01T22:02:53;98525.59;;;7.74;89.75
35489;BME280;21602;55.670;37.578;2023-04-01T22:16:59;98516.53;;;7.58;90.45
35489;BME280;21602;55.670;37.578;2023-04-01T22:25:49;98524.84;;;7.61;91.19
35489;BME280;21602;55.670;37.578;2023-04-01T22:28:27;98515.47;;;7.59;91.10
35489;BME280;21602;55.670;37.578;2023-04-01T22:31:01;98517.91;;;7.60;91.16
35489;BME280;21602;55.670;37.578;2023-04-01T22:38:36;98524.72;;;7.56;91.58
35489;BME280;21602;55.670;37.578;2023-04-01T22:41:32;98525.28;;;7.58;92.08
35489;BME280;21602;55.670;37.578;2023-04-01T22:44:00;98527.38;;;7.56;92.42
35489;BME280;21602;55.670;37.578;2023-04-01T22:49:36;98525.28;;;7.58;92.75
35489;BME280;21602;55.670;37.578;2023-04-01T22:52:29;98524.72;;;7.56;93.02
35489;BME280;21602;55.670;37.578;2023-04-01T22:55:04;98531.19;;;7.60;93.46
35489;BME280;21602;55.670;37.578;2023-04-01T22:58:11;98526.69;;;7.61;93.45
35489;BME280;21602;55.670;37.578;2023-04-01T23:00:52;98527.38;;;7.56;93.69
35489;BME280;21602;55.670;37.578;2023-04-01T23:03:37;98524.13;;;7.54;93.78
35489;BME280;21602;55.670;37.578;2023-04-01T23:06:06;98524.13;;;7.54;93.91
35489;BME280;21602;55.670;37.578;2023-04-01T23:08:39;98523.69;;;7.57;94.12
35489;BME280;21602;55.670;37.578;2023-04-01T23:11:16;98521.94;;;7.63;94.30
35489;BME280;21602;55.670;37.578;2023-04-01T23:13:53;98527.72;;;7.60;94.34
35489;BME280;21602;55.670;37.578;2023-04-01T23:16:36;98527.03;;;7.53;94.77
35489;BME280;21602;55.670;37.578;2023-04-01T23:19:20;98522.53;;;7.53;94.76
35489;BME280;21602;55.670;37.578;2023-04-01T23:21:53;98526.47;;;7.51;94.70
35489;BME280;21602;55.670;37.578;2023-04-01T23:24:34;98529.44;;;7.54;95.26
35489;BME280;21602;55.670;37.578;2023-04-01T23:27:13;98528.91;;;7.52;95.16
35489;BME280;21602;55.670;37.578;2023-04-01T23:29:43;98527.97;;;7.47;95.38
35489;BME280;21602;55.670;37.578;2023-04-01T23:32:17;98533.28;;;7.47;95.78
35489;BME280;21602;55.670;37.578;2023-04-01T23:34:52;98532.50;;;7.46;95.71
35489;BME280;21602;55.670;37.578;2023-04-01T23:37:20;98532.50;;;7.46;95.68
35489;BME280;21602;55.670;37.578;2023-04-01T23:39:51;98537.31;;;7.49;95.60
35489;BME280;21602;55.670;37.578;2023-04-01T23:42:30;98539.97;;;7.49;95.60
35489;BME280;21602;55.670;37.578;2023-04-01T23:44:58;98534.66;;;7.49;95.96
35489;BME280;21602;55.670;37.578;2023-04-01T23:47:37;98537.91;;;7.51;96.15
35489;BME280;21602;55.670;37.578;2023-04-01T23:50:12;98538.97;;;7.50;96.17
35489;BME280;21602;55.670;37.578;2023-04-01T23:52:47;98534.44;;;7.51;96.19
35489;BME280;21602;55.670;37.578;2023-04-01T23:55:15;98533.66;;;7.50;96.13
35489;BME280;21602;55.670;37.578;2023-04-01T23:58:12;98538.00;;;7.56;96.03
